createdAt,value
2017-09-11T00:00:33.359Z,17.20
2017-09-11T00:03:08.065Z,17.20
2017-09-11T00:05:42.706Z,17.10
2017-09-11T00:08:19.482Z,17.20
2017-09-11T00:10:53.906Z,17.20
2017-09-11T00:13:28.858Z,17.10
2017-09-11T00:16:03.308Z,17.10
2017-09-11T00:18:37.947Z,17.20
2017-09-11T00:21:12.505Z,17.20
2017-09-11T00:23:50.149Z,17.10
2017-09-11T00:26:24.821Z,17.10
2017-09-11T00:28:59.462Z,17.10
2017-09-11T00:31:34.069Z,17.00
2017-09-11T00:34:08.570Z,17.10
2017-09-11T00:36:43.169Z,17.10
2017-09-11T00:39:17.820Z,17.10
2017-09-11T00:41:52.463Z,17.10
2017-09-11T00:44:26.804Z,17.10
2017-09-11T00:47:01.104Z,17.10
2017-09-11T00:49:35.656Z,17.10
2017-09-11T00:52:09.856Z,17.10
2017-09-11T00:54:43.747Z,17.10
2017-09-11T00:57:18.326Z,17.20
2017-09-11T00:59:52.838Z,17.10
2017-09-11T01:02:27.395Z,17.20
2017-09-11T01:05:03.070Z,17.20
2017-09-11T01:07:42.103Z,17.20
2017-09-11T01:10:18.158Z,17.20
2017-09-11T01:12:53.594Z,17.20
2017-09-11T01:15:28.970Z,17.20
2017-09-11T01:18:04.581Z,17.20
2017-09-11T01:20:41.624Z,17.20
2017-09-11T01:23:16.829Z,17.10
2017-09-11T01:25:51.055Z,17.20
2017-09-11T01:28:25.427Z,17.10
2017-09-11T01:30:59.534Z,17.10
2017-09-11T01:33:33.317Z,17.10
2017-09-11T01:36:07.850Z,17.10
2017-09-11T01:38:42.438Z,17.10
2017-09-11T01:41:19.228Z,17.10
2017-09-11T01:43:53.566Z,17.10
2017-09-11T01:46:28.889Z,17.10
2017-09-11T01:49:03.408Z,17.10
2017-09-11T01:51:37.757Z,17.10
2017-09-11T01:54:12.417Z,17.10
2017-09-11T01:56:46.990Z,17.10
2017-09-11T01:59:21.605Z,17.10
2017-09-11T02:01:57.671Z,17.10
2017-09-11T02:04:32.103Z,17.00
2017-09-11T02:07:06.730Z,17.00
2017-09-11T02:09:41.400Z,17.00
2017-09-11T02:12:15.901Z,16.90
2017-09-11T02:14:50.618Z,16.90
2017-09-11T02:17:25.074Z,15.50
2017-09-11T02:19:59.746Z,16.90
2017-09-11T02:22:34.289Z,16.80
2017-09-11T02:25:15.299Z,16.80
2017-09-11T02:27:49.942Z,16.80
2017-09-11T02:30:25.395Z,16.70
2017-09-11T02:33:00.042Z,16.70
2017-09-11T02:35:34.315Z,16.70
2017-09-11T02:38:08.940Z,16.60
2017-09-11T02:40:43.510Z,16.60
2017-09-11T02:43:17.955Z,16.60
2017-09-11T02:45:52.466Z,16.60
2017-09-11T02:48:28.613Z,16.60
2017-09-11T02:51:03.291Z,16.60
2017-09-11T02:53:37.946Z,16.60
2017-09-11T02:56:12.470Z,16.70
2017-09-11T02:58:46.954Z,16.70
2017-09-11T03:01:21.482Z,16.70
2017-09-11T03:03:55.947Z,16.70
2017-09-11T03:06:30.555Z,16.80
2017-09-11T03:09:04.486Z,16.80
2017-09-11T03:11:39.706Z,16.80
2017-09-11T03:14:14.313Z,16.70
2017-09-11T03:16:48.740Z,16.90
2017-09-11T03:19:23.182Z,16.90
2017-09-11T03:21:57.498Z,16.90
2017-09-11T03:24:32.203Z,16.90
2017-09-11T03:27:06.720Z,16.90
2017-09-11T03:29:44.026Z,16.90
2017-09-11T03:32:18.479Z,16.90
2017-09-11T03:34:53.809Z,17.00
2017-09-11T03:37:28.483Z,16.90
2017-09-11T03:40:13.333Z,17.00
2017-09-11T03:42:47.776Z,17.00
2017-09-11T03:45:22.367Z,17.00
2017-09-11T03:47:59.102Z,17.00
2017-09-11T03:50:33.708Z,17.00
2017-09-11T03:53:08.778Z,17.00
2017-09-11T03:55:43.253Z,17.00
2017-09-11T03:58:17.850Z,17.00
2017-09-11T04:00:52.433Z,17.00
2017-09-11T04:03:27.267Z,17.00
2017-09-11T04:06:01.954Z,16.90
2017-09-11T04:08:36.599Z,16.90
2017-09-11T04:11:11.184Z,16.80
2017-09-11T04:13:45.723Z,16.80
2017-09-11T04:16:20.346Z,16.80
2017-09-11T04:18:54.738Z,16.70
2017-09-11T04:21:29.547Z,16.70
2017-09-11T04:24:03.939Z,16.70
2017-09-11T04:26:38.611Z,16.60
2017-09-11T04:29:13.132Z,16.60
2017-09-11T04:31:47.714Z,16.60
2017-09-11T04:34:22.207Z,16.60
2017-09-11T04:36:56.794Z,16.60
2017-09-11T04:39:31.337Z,16.50
2017-09-11T04:42:05.754Z,16.50
2017-09-11T04:44:40.375Z,16.50
2017-09-11T04:47:14.915Z,16.40
2017-09-11T04:49:49.340Z,16.40
2017-09-11T04:52:23.948Z,16.50
2017-09-11T04:54:58.492Z,16.50
2017-09-11T04:57:33.111Z,16.50
2017-09-11T05:00:15.562Z,16.60
2017-09-11T05:02:50.051Z,16.70
2017-09-11T05:05:24.296Z,16.80
2017-09-11T05:07:58.446Z,16.80
2017-09-11T05:10:32.965Z,16.90
2017-09-11T05:13:07.332Z,16.90
2017-09-11T05:15:41.849Z,17.00
2017-09-11T05:18:16.427Z,17.00
2017-09-11T05:20:51.004Z,17.10
2017-09-11T05:23:25.489Z,17.10
2017-09-11T05:26:00.150Z,17.20
2017-09-11T05:28:34.682Z,17.20
2017-09-11T05:31:09.315Z,17.30
2017-09-11T05:33:43.965Z,17.20
2017-09-11T05:36:18.568Z,17.10
2017-09-11T05:38:52.988Z,17.20
2017-09-11T05:41:27.418Z,17.10
2017-09-11T05:44:02.042Z,17.10
2017-09-11T05:46:36.610Z,17.10
2017-09-11T05:49:11.103Z,17.20
2017-09-11T05:51:45.655Z,17.20
2017-09-11T05:54:20.077Z,17.30
2017-09-11T05:56:54.771Z,17.40
2017-09-11T05:59:29.429Z,17.50
2017-09-11T06:02:03.877Z,17.60
2017-09-11T06:04:38.553Z,17.70
2017-09-11T06:07:13.191Z,17.80
2017-09-11T06:09:47.935Z,17.80
2017-09-11T06:12:22.566Z,17.90
2017-09-11T06:14:57.126Z,18.00
2017-09-11T06:17:31.768Z,18.00
2017-09-11T06:20:14.510Z,18.20
2017-09-11T06:22:48.990Z,18.40
2017-09-11T06:25:23.542Z,18.60
2017-09-11T06:27:58.119Z,18.80
2017-09-11T06:30:33.046Z,19.00
2017-09-11T06:33:07.517Z,19.30
2017-09-11T06:35:42.140Z,19.60
2017-09-11T06:38:16.761Z,20.00
2017-09-11T06:40:51.271Z,20.30
2017-09-11T06:43:25.857Z,20.30
2017-09-11T06:46:00.419Z,20.50
2017-09-11T06:48:34.897Z,20.50
2017-09-11T06:51:09.494Z,20.50
2017-09-11T06:53:44.167Z,20.50
2017-09-11T06:56:18.799Z,20.40
2017-09-11T06:58:53.363Z,20.40
2017-09-11T07:01:27.971Z,20.40
2017-09-11T07:04:02.645Z,20.50
2017-09-11T07:06:37.238Z,20.70
2017-09-11T07:09:11.950Z,21.00
2017-09-11T07:11:46.566Z,21.60
2017-09-11T07:14:20.991Z,21.50
2017-09-11T07:16:56.378Z,22.20
2017-09-11T07:19:30.955Z,22.10
2017-09-11T07:22:05.628Z,22.50
2017-09-11T07:24:40.334Z,22.60
2017-09-11T07:27:14.778Z,22.70
2017-09-11T07:29:49.337Z,22.90
2017-09-11T07:32:23.974Z,23.00
2017-09-11T07:34:58.418Z,23.20
2017-09-11T07:37:33.030Z,23.40
2017-09-11T07:40:14.283Z,23.70
2017-09-11T07:42:48.882Z,24.20
2017-09-11T07:45:23.473Z,24.60
2017-09-11T07:47:58.081Z,25.00
2017-09-11T07:50:32.698Z,25.50
2017-09-11T07:53:07.258Z,25.70
2017-09-11T07:55:41.803Z,25.90
2017-09-11T07:58:16.834Z,25.80
2017-09-11T08:00:51.352Z,25.70
2017-09-11T08:03:26.008Z,25.50
2017-09-11T08:06:00.511Z,25.30
2017-09-11T08:08:35.115Z,24.90
2017-09-11T08:11:09.710Z,24.70
2017-09-11T08:13:44.399Z,24.60
2017-09-11T08:16:18.953Z,24.40
2017-09-11T08:18:53.638Z,24.30
2017-09-11T08:21:28.218Z,24.10
2017-09-11T08:24:02.727Z,24.10
2017-09-11T08:26:37.282Z,24.20
2017-09-11T08:29:11.779Z,24.20
2017-09-11T08:31:46.412Z,24.20
2017-09-11T08:34:20.886Z,24.10
2017-09-11T08:36:55.209Z,24.00
2017-09-11T08:39:29.806Z,23.90
2017-09-11T08:42:04.354Z,23.80
2017-09-11T08:44:38.965Z,23.70
2017-09-11T08:47:13.498Z,23.70
2017-09-11T08:49:48.165Z,23.80
2017-09-11T08:52:22.690Z,24.10
2017-09-11T08:54:57.300Z,24.30
2017-09-11T09:01:08.998Z,24.70
2017-09-11T09:03:43.581Z,25.10
2017-09-11T09:06:18.069Z,25.10
2017-09-11T09:08:52.623Z,25.20
2017-09-11T09:11:27.372Z,25.30
2017-09-11T09:14:01.994Z,25.30
2017-09-11T09:16:36.546Z,25.30
2017-09-11T09:19:11.098Z,25.10
2017-09-11T09:21:45.706Z,25.00
2017-09-11T09:24:20.122Z,25.00
2017-09-11T09:26:54.667Z,24.80
2017-09-11T09:29:29.190Z,24.80
2017-09-11T09:32:03.698Z,24.80
2017-09-11T09:34:38.451Z,24.90
2017-09-11T09:37:12.870Z,25.10
2017-09-11T09:39:47.357Z,25.50
2017-09-11T09:42:22.010Z,25.70
2017-09-11T09:44:56.439Z,25.70
2017-09-11T09:47:31.026Z,25.70
2017-09-11T09:50:14.484Z,25.60
2017-09-11T09:52:49.183Z,25.70
2017-09-11T09:55:23.841Z,25.70
2017-09-11T09:57:58.341Z,25.50
2017-09-11T10:00:33.130Z,25.30
2017-09-11T10:03:07.815Z,25.00
2017-09-11T10:05:42.359Z,24.80
2017-09-11T10:08:17.073Z,24.50
2017-09-11T10:10:51.599Z,24.30
2017-09-11T10:13:26.179Z,24.10
2017-09-11T10:16:00.702Z,23.80
2017-09-11T10:18:35.347Z,23.50
2017-09-11T10:21:09.903Z,23.20
2017-09-11T10:23:44.398Z,23.10
2017-09-11T10:26:18.999Z,22.90
2017-09-11T10:28:53.569Z,22.70
2017-09-11T10:31:27.984Z,22.50
2017-09-11T10:34:02.566Z,22.30
2017-09-11T10:36:37.074Z,22.20
2017-09-11T10:39:11.775Z,22.10
2017-09-11T10:41:46.313Z,22.00
2017-09-11T10:44:20.870Z,22.00
2017-09-11T10:46:55.422Z,21.90
2017-09-11T10:49:30.070Z,22.00
2017-09-11T10:52:04.539Z,22.10
2017-09-11T10:54:39.272Z,22.30
2017-09-11T10:57:13.818Z,22.30
2017-09-11T10:59:48.298Z,22.40
2017-09-11T11:02:22.898Z,22.40
2017-09-11T11:04:57.561Z,22.40
2017-09-11T11:07:31.948Z,22.30
2017-09-11T11:10:13.797Z,22.20
2017-09-11T11:12:48.510Z,22.10
2017-09-11T11:15:23.066Z,22.00
2017-09-11T11:17:57.703Z,21.90
2017-09-11T11:20:32.350Z,21.70
2017-09-11T11:23:06.928Z,21.60
2017-09-11T11:25:41.478Z,21.50
2017-09-11T11:28:16.107Z,21.40
2017-09-11T11:30:50.643Z,21.30
2017-09-11T11:33:25.109Z,21.20
2017-09-11T11:35:59.647Z,21.20
2017-09-11T11:38:34.137Z,21.10
2017-09-11T11:41:08.664Z,21.00
2017-09-11T11:43:43.226Z,20.90
2017-09-11T11:46:17.712Z,20.90
2017-09-11T11:48:52.341Z,20.90
2017-09-11T11:51:26.874Z,20.90
2017-09-11T11:54:01.389Z,21.00
2017-09-11T11:56:36.001Z,21.00
2017-09-11T11:59:10.574Z,21.00
2017-09-11T12:01:45.191Z,21.20
2017-09-11T12:04:19.643Z,21.20
2017-09-11T12:06:54.254Z,21.30
2017-09-11T12:09:28.755Z,21.40
2017-09-11T12:12:03.353Z,21.50
2017-09-11T12:14:37.854Z,21.50
2017-09-11T12:17:12.448Z,21.50
2017-09-11T12:19:47.176Z,21.50
2017-09-11T12:22:21.747Z,21.50
2017-09-11T12:24:56.399Z,21.40
2017-09-11T12:27:31.032Z,21.30
2017-09-11T12:30:14.915Z,21.20
2017-09-11T12:32:49.491Z,21.10
2017-09-11T12:35:23.870Z,21.10
2017-09-11T12:37:58.244Z,21.10
2017-09-11T12:40:32.726Z,21.00
2017-09-11T12:43:07.167Z,21.00
2017-09-11T12:45:42.505Z,21.00
2017-09-11T12:48:17.156Z,21.00
2017-09-11T12:50:51.772Z,21.00
2017-09-11T12:53:26.215Z,21.10
2017-09-11T12:56:00.775Z,21.10
2017-09-11T12:58:35.383Z,21.10
2017-09-11T13:01:09.907Z,21.10
2017-09-11T13:03:44.507Z,21.10
2017-09-11T13:06:19.056Z,21.00
2017-09-11T13:08:53.550Z,21.00
2017-09-11T13:11:28.063Z,20.90
2017-09-11T13:14:03.019Z,20.80
2017-09-11T13:16:37.594Z,20.70
2017-09-11T13:19:12.219Z,20.60
2017-09-11T13:21:46.762Z,20.40
2017-09-11T13:24:21.259Z,20.30
2017-09-11T13:26:55.781Z,20.30
2017-09-11T13:29:30.437Z,20.20
2017-09-11T13:32:05.022Z,20.20
2017-09-11T13:34:39.566Z,20.20
2017-09-11T13:37:14.412Z,20.10
2017-09-11T13:39:48.817Z,20.10
2017-09-11T13:42:23.362Z,20.10
2017-09-11T13:44:57.894Z,20.10
2017-09-11T13:47:32.523Z,20.00
2017-09-11T13:50:14.090Z,20.00
2017-09-11T13:52:49.190Z,20.00
2017-09-11T13:55:23.998Z,20.00
2017-09-11T13:57:58.658Z,20.00
2017-09-11T14:00:33.286Z,20.00
2017-09-11T14:03:07.906Z,20.00
2017-09-11T14:05:42.323Z,19.90
2017-09-11T14:08:16.757Z,19.80
2017-09-11T14:10:51.235Z,19.70
2017-09-11T14:13:25.572Z,19.60
2017-09-11T14:16:00.131Z,19.60
2017-09-11T14:18:34.826Z,19.70
2017-09-11T14:21:10.954Z,19.70
2017-09-11T14:23:45.527Z,19.70
2017-09-11T14:26:20.096Z,19.70
2017-09-11T14:28:54.986Z,19.70
2017-09-11T14:31:29.526Z,19.80
2017-09-11T14:34:04.235Z,19.80
2017-09-11T14:36:38.689Z,19.80
2017-09-11T14:39:13.046Z,19.80
2017-09-11T14:41:47.761Z,19.70
2017-09-11T14:44:22.381Z,19.60
2017-09-11T14:46:57.006Z,19.60
2017-09-11T14:49:31.467Z,19.60
2017-09-11T14:52:05.997Z,19.60
2017-09-11T14:54:40.624Z,19.60
2017-09-11T14:57:15.223Z,19.60
2017-09-11T14:59:49.766Z,19.40
2017-09-11T15:02:25.194Z,19.30
2017-09-11T15:04:59.487Z,19.20
2017-09-11T15:07:33.819Z,19.20
2017-09-11T15:10:22.126Z,19.20
2017-09-11T15:12:56.579Z,19.10
2017-09-11T15:15:31.023Z,19.10
2017-09-11T15:18:05.511Z,19.00
2017-09-11T15:20:40.067Z,19.00
2017-09-11T15:23:16.044Z,18.90
2017-09-11T15:25:50.776Z,18.90
2017-09-11T15:28:25.277Z,19.00
2017-09-11T15:30:59.801Z,18.90
2017-09-11T15:33:34.474Z,18.80
2017-09-11T15:36:09.036Z,18.60
2017-09-11T15:38:43.339Z,18.70
2017-09-11T15:41:17.850Z,18.50
2017-09-11T15:43:52.548Z,18.40
2017-09-11T15:46:27.226Z,18.40
2017-09-11T15:49:01.689Z,18.20
2017-09-11T15:51:36.257Z,18.20
2017-09-11T15:54:10.478Z,18.10
2017-09-11T15:56:45.215Z,18.10
2017-09-11T15:59:19.727Z,18.00
2017-09-11T16:01:54.413Z,18.00
2017-09-11T16:04:28.867Z,18.00
2017-09-11T16:07:03.521Z,18.00
2017-09-11T16:09:38.082Z,17.90
2017-09-11T16:12:12.738Z,17.90
2017-09-11T16:14:48.073Z,17.90
2017-09-11T16:17:22.502Z,17.90
2017-09-11T16:19:56.964Z,17.90
2017-09-11T16:22:31.475Z,17.90
2017-09-11T16:25:06.266Z,17.80
2017-09-11T16:27:40.614Z,17.90
2017-09-11T16:30:15.503Z,17.90
2017-09-11T16:32:49.734Z,17.90
2017-09-11T16:35:24.365Z,17.90
2017-09-11T16:37:58.531Z,17.80
2017-09-11T16:40:33.946Z,17.70
2017-09-11T16:43:08.912Z,17.60
2017-09-11T16:45:43.643Z,17.60
2017-09-11T16:48:18.301Z,17.70
2017-09-11T16:50:52.947Z,17.50
2017-09-11T16:53:27.772Z,17.50
2017-09-11T16:56:02.187Z,17.50
2017-09-11T16:58:36.705Z,17.40
2017-09-11T17:01:11.442Z,17.40
2017-09-11T17:03:45.974Z,17.40
2017-09-11T17:06:20.542Z,17.50
2017-09-11T17:08:55.181Z,17.50
2017-09-11T17:11:29.809Z,17.40
2017-09-11T17:14:04.391Z,17.40
2017-09-11T17:16:38.950Z,17.40
2017-09-11T17:19:13.890Z,17.40
2017-09-11T17:21:48.402Z,17.40
2017-09-11T17:24:22.969Z,17.40
2017-09-11T17:26:57.530Z,17.40
2017-09-11T17:29:32.191Z,17.30
2017-09-11T17:32:06.974Z,17.30
2017-09-11T17:34:41.671Z,17.30
2017-09-11T17:37:16.095Z,17.40
2017-09-11T17:39:50.378Z,17.40
2017-09-11T17:42:24.797Z,17.30
2017-09-11T17:44:59.577Z,17.30
2017-09-11T17:47:33.942Z,17.30
2017-09-11T17:50:15.295Z,17.30
2017-09-11T17:52:50.233Z,17.20
2017-09-11T17:55:24.925Z,17.10
2017-09-11T17:57:59.440Z,17.10
2017-09-11T18:00:34.003Z,17.00
2017-09-11T18:03:08.690Z,16.90
2017-09-11T18:05:43.306Z,16.70
2017-09-11T18:08:17.955Z,16.70
2017-09-11T18:10:52.467Z,16.60
2017-09-11T18:13:26.850Z,16.50
2017-09-11T18:16:01.734Z,16.40
2017-09-11T18:18:36.202Z,16.30
2017-09-11T18:21:10.761Z,16.30
2017-09-11T18:23:45.459Z,16.10
2017-09-11T18:26:20.071Z,16.20
2017-09-11T18:28:54.545Z,16.10
2017-09-11T18:31:29.039Z,16.10
2017-09-11T18:34:05.162Z,16.00
2017-09-11T18:36:39.718Z,16.00
2017-09-11T18:39:15.714Z,16.00
2017-09-11T18:41:50.449Z,16.00
2017-09-11T18:44:25.023Z,16.00
2017-09-11T18:46:59.673Z,16.00
2017-09-11T18:49:34.452Z,16.00
2017-09-11T18:52:09.045Z,15.90
2017-09-11T18:54:43.787Z,15.90
2017-09-11T18:57:18.954Z,16.00
2017-09-11T18:59:53.991Z,16.00
2017-09-11T19:02:28.565Z,16.00
2017-09-11T19:05:04.303Z,16.10
2017-09-11T19:07:38.801Z,16.10
2017-09-11T19:10:15.998Z,16.10
2017-09-11T19:12:50.461Z,16.10
2017-09-11T19:15:24.981Z,16.10
2017-09-11T19:17:59.707Z,16.10
2017-09-11T19:20:34.303Z,16.10
2017-09-11T19:23:08.751Z,16.10
2017-09-11T19:25:43.394Z,16.10
2017-09-11T19:28:17.974Z,16.10
2017-09-11T19:30:52.739Z,16.10
2017-09-11T19:33:27.275Z,16.00
2017-09-11T19:36:01.942Z,16.10
2017-09-11T19:38:36.459Z,16.00
2017-09-11T19:41:10.913Z,16.00
2017-09-11T19:43:45.357Z,16.10
2017-09-11T19:46:20.053Z,16.00
2017-09-11T19:48:54.544Z,15.90
2017-09-11T19:51:29.166Z,15.90
2017-09-11T19:54:03.882Z,15.80
2017-09-11T19:56:38.446Z,15.60
2017-09-11T19:59:13.746Z,15.50
2017-09-11T20:01:48.550Z,15.50
2017-09-11T20:04:23.137Z,15.50
2017-09-11T20:06:57.648Z,15.50
2017-09-11T20:09:32.158Z,15.40
2017-09-11T20:12:06.953Z,15.40
2017-09-11T20:14:41.623Z,15.50
2017-09-11T20:17:46.474Z,15.50
2017-09-11T20:20:21.059Z,15.40
2017-09-11T20:22:55.686Z,15.50
2017-09-11T20:25:30.270Z,15.40
2017-09-11T20:28:04.850Z,15.50
2017-09-11T20:30:39.417Z,15.50
2017-09-11T20:33:14.655Z,15.50
2017-09-11T20:35:49.226Z,15.50
2017-09-11T20:38:23.824Z,15.60
2017-09-11T20:40:58.190Z,15.60
2017-09-11T20:43:32.794Z,15.70
2017-09-11T20:46:07.296Z,15.70
2017-09-11T20:48:42.461Z,15.80
2017-09-11T20:51:16.970Z,15.70
2017-09-11T20:53:51.676Z,15.80
2017-09-11T20:56:27.256Z,15.80
2017-09-11T20:59:05.872Z,15.70
2017-09-11T21:01:40.614Z,15.90
2017-09-11T21:04:15.415Z,15.80
2017-09-11T21:06:50.730Z,15.80
2017-09-11T21:09:25.254Z,15.70
2017-09-11T21:12:00.029Z,15.70
2017-09-11T21:14:34.258Z,15.70
2017-09-11T21:17:08.826Z,15.70
2017-09-11T21:19:43.224Z,15.70
2017-09-11T21:22:17.795Z,15.60
2017-09-11T21:24:52.386Z,15.60
2017-09-11T21:27:26.875Z,15.70
2017-09-11T21:30:01.479Z,15.80
2017-09-11T21:32:37.499Z,15.90
2017-09-11T21:35:14.834Z,15.80
2017-09-11T21:37:49.463Z,15.90
2017-09-11T21:40:23.969Z,15.90
2017-09-11T21:42:58.458Z,15.90
2017-09-11T21:45:33.050Z,16.00
2017-09-11T21:48:07.464Z,16.00
2017-09-11T21:50:41.971Z,16.00
2017-09-11T21:53:16.906Z,16.10
2017-09-11T21:55:51.413Z,16.00
2017-09-11T21:58:25.842Z,16.00
2017-09-11T22:01:00.423Z,16.00
2017-09-11T22:03:34.898Z,16.00
2017-09-11T22:06:09.413Z,16.00
2017-09-11T22:08:43.994Z,16.10
2017-09-11T22:11:18.577Z,16.00
2017-09-11T22:13:53.338Z,16.00
2017-09-11T22:16:28.010Z,15.90
2017-09-11T22:19:02.578Z,15.90
2017-09-11T22:21:37.063Z,15.90
2017-09-11T22:24:11.598Z,15.90
2017-09-11T22:26:46.311Z,15.90
2017-09-11T22:29:20.763Z,15.90
2017-09-11T22:31:55.358Z,15.90
2017-09-11T22:34:29.931Z,15.90
2017-09-11T22:37:04.712Z,15.90
2017-09-11T22:39:39.976Z,15.90
2017-09-11T22:42:14.434Z,15.90
2017-09-11T22:44:49.460Z,16.00
2017-09-11T22:47:23.918Z,15.90
2017-09-11T22:49:58.332Z,15.90
2017-09-11T22:52:32.827Z,15.90
2017-09-11T22:55:14.374Z,15.90
2017-09-11T22:57:48.890Z,16.00
2017-09-11T23:00:23.306Z,16.00
2017-09-11T23:02:57.847Z,15.90
2017-09-11T23:05:33.221Z,15.80
2017-09-11T23:08:07.851Z,15.80
2017-09-11T23:10:42.678Z,15.80
2017-09-11T23:13:17.207Z,15.80
2017-09-11T23:15:51.767Z,15.90
2017-09-11T23:18:26.251Z,15.80
2017-09-11T23:21:00.829Z,15.80
2017-09-11T23:23:35.348Z,15.90
2017-09-11T23:26:09.950Z,15.80
2017-09-11T23:28:44.707Z,15.90
2017-09-11T23:31:19.330Z,15.90
2017-09-11T23:33:53.886Z,15.80
2017-09-11T23:36:28.358Z,15.80
2017-09-11T23:39:02.920Z,15.60
2017-09-11T23:41:37.403Z,15.60
2017-09-11T23:44:12.007Z,15.60
2017-09-11T23:46:46.722Z,15.50
2017-09-11T23:49:21.261Z,15.50
2017-09-11T23:51:55.810Z,15.60
2017-09-11T23:54:30.338Z,15.60
2017-09-11T23:57:05.083Z,15.70
2017-09-11T23:59:39.534Z,15.70
